Terminal Aerodrome Forecast
Issued by NWS

Home | Current Version | Previous Version | Text Only | Print | Product List | Glossary On
Versions: 1 2 3 4 5 6 7 8 9 10 11 12 13
000
FTUS45 KLKN 242324
TAFELY
TAF
KELY 242324Z 2500/2524 17012G22KT P6SM VCTS BKN080CB
     FM250400 19010KT P6SM VCTS SCT060CB BKN100
     FM250700 19006KT P6SM VCSH SCT060 BKN100
     FM251800 17007KT P6SM VCTS BKN060CB BKN120
      AMD NOT SKED=

USA.gov is the U.S. government's official web portal to all federal, state and local government web resources and services.